Bagdogra Airport
VEBD : now visible

Airfield :











YOU CAN JOIN US ON...

 
LOGIN :

Register | Disclaimer

   EN    FR    IT 

 









Legend :    VFR   Marginal VFR   IFR   Intensive IFR   Very Intensive IFR
Visi :
Ceiling :
>= 8 km
>= 3000ft
5 to 8 km
1000 to 3000 ft
1500m to 5 km
500 to 1000 ft
800 to 1500m
200 to 500 ft
< 800m
< 200 ft
Symbols :   Thunderstorms  Fog  Heavy snow  Heavy precipitations  Wind > 20 kt







- Airport Elevation : 412 ft
- IATA code : IXB


VEBD - Bagdogra

CURRENT METAR :
  • 180530Z 08007KT 5000 BR SCT010 SCT020 29/27 Q1002 NOSIG

EXPIRED METARs :
  • 180430Z 08005KT 3500 BRRETS SCT025 SCT100 27/26 Q1002 TEMPO -RA
  • 180330Z VRB02KT 2000 BRTSRA SCT020 FEW030CB BKN080 25/25 Q1002 TEMPO 1500 TSRA

TAF TAF VEBD
Valid from the 18 at 06:00 until the 18 at 18:00 UTC


180330Z 1806/1818 10010KT 4000 TSRA/RA SCT020 FEW030TCU/CB BKN090
TEMPO 1809/1812 2000 TSRA SCT020 FEW030TCU/CB BKN090
VECF FIR / Asia



MET'MAP, your aeronautical weather chart ! - Copyright ORBIFLY December 2007 - Disclaimer

ORBIFLY MET'MAP TEAM :

Programming & Development : Alexandra Zaïnal
Concept & Development : Baudouin d'Aumeries
Co-Development & Prog : Marc-Olivier Méhu
Technical & hardware support : Manuel Goepfert

Contact : metmap@orbifly.com




SOURCES & CREDITS :

   NOAA       Earth
Advisory